Samantha, Ohio
Current Conditions -  °F | °C
As of 10:54 PM on Wednesday 28 Jan 2015 (Local Time) from KILN Reporting Station
Clear Clear  
Wind Chill: 19°   Ceiling: Unl
Heat Index: 28°   Visibility: 10mi
Dew Point: 18°   Wind: 10mph
Humidity: 66%   Direction: 150°SSE
Pressure: 30.15"   Gusts: NA
Location:  39.3503°N, 83.5434°W
Report Text: KILN 290354Z AUTO 15009KT 10SM CLR M02/M08 A3015 RMK AO2 SLP244 T10221078
Loading
Personal Weather Stations






























Interactive Weather Map New forecast layout! Learn more

10-Day Weather Forecast

Advertisements
Track Severe Weather on mobile